Camp Crook, South Dakota
Current Conditions -  °F | °C
As of 7:51 AM on Thursday 18 Dec 2014 (Local Time) from KBHK Reporting Station
Overcast Overcast  
Wind Chill: 22°   Ceiling: 6500
Heat Index: 27°   Visibility: 10mi
Dew Point: 25°   Wind: 5mph
Humidity: 92%   Direction: 250°WSW
Pressure: 29.95"   Gusts: NA
Location:  45.55°N, 103.97°W
Report Text: KBHK 181451Z AUTO 25004KT 10SM OVC065 M03/M04 A2995 RMK AO2 SLP176 T10281039 53000
Loading
Personal Weather Stations






























Interactive Weather Map New forecast layout! Learn more

10-Day Weather Forecast

Advertisements
Track Severe Weather on mobile